Main page
METAR-TAF:

METAR-TAF

Airports :

Lagos, Nigeria

Murtala Muhammed International Airport

latitude: 06-35N, longitude: 003-20E, elevation: 40 m

Current weather observation

The report was made 1 hour and 3 minutes ago, at 20:00 UTC
Wind 3 kt from the West/Southwest
Temperature 28°C
Humidity 79%
Pressure 1012 hPa
Visibility: 7000 m
Few clouds at a height of 1200 ft

METAR: DNMM 202000Z 24003KT 7000 FEW012 28/24 Q1012 NOSIG

Time: 22:03 (21:03 UTC)

Forecast

The report was made 5 hours and 33 minutes ago, at 15:30 UTC
Forecast valid from 20 at 18 UTC to 21 at 24 UTC
Wind 6 kt from the South
Visibility: 7000 m
Scattered clouds at a height of 1100 ft
Probability 30% :
Temporary
from 20 at 18 UTC to 20 at 20 UTC
Scattered clouds at a height of 1100 ft
Few clouds at a height of 2000 ft, Cumulonimbus.
thunderstorm
Temporary
from 21 at 05 UTC to 21 at 08 UTC
Visibility: 3000 m
mist

TAF: DNMM 201530Z 2018/2124 18006KT 7000 SCT011 PROB30 TEMPO 2018/2020 TS SCT011 FEW020CB TEMPO 2105/2108 3000 BR

Weather observations and forecasts of more than 4000 airports (METAR and TAF reports).

The available stations are represented by yellow and red dots on the map.

Hover mouse over dot to see the name of the station.

Then click to see weather observations and forecasts.

To change the map : click on the green buttons with a black cross to zoom in, on the green button with a dash to zoom out, or on the green arrows for adjacent maps.


METAR-TAF: